Time;durP1;ratioP1;P1;durP2;ratioP2;P2;SDS_P1;SDS_P2;PMS_P1;PMS_P2;Temp;Humidity;BMP_temperature;BMP_pressure;BME280_temperature;BME280_humidity;BME280_pressure;Samples;Min_cycle;Max_cycle;Signal;HPM_P1;HPM_P2
2021/09/07 00:00:15;;;;;;;15.43;12.73;;;;;;;;;;5032635;28;20060;-62
2021/09/07 00:02:41;;;;;;;21.75;14.43;;;;;;;;;;5034344;28;20477;-61
2021/09/07 00:05:08;;;;;;;21.52;15.38;;;;;;;;;;5033622;28;20036;-62
2021/09/07 00:07:34;;;;;;;19.67;15.17;;;;;;;;;;5034452;28;20025;-62
2021/09/07 00:10:00;;;;;;;19.48;13.32;;;;;;;;;;5034546;28;20025;-62
2021/09/07 00:12:26;;;;;;;18.75;13.93;;;;;;;;;;5032368;28;20052;-62
2021/09/07 00:14:52;;;;;;;17.40;14.15;;;;;;;;;;5042966;28;20367;-62
2021/09/07 00:17:18;;;;;;;17.90;13.90;;;;;;;;;;5028371;28;20529;-62
2021/09/07 00:19:44;;;;;;;17.45;14.13;;;;;;;;;;5031692;28;20025;-62
2021/09/07 00:22:10;;;;;;;18.52;13.95;;;;;;;;;;5032759;28;20160;-62
2021/09/07 00:24:36;;;;;;;19.05;14.77;;;;;;;;;;5032735;28;20030;-62
2021/09/07 00:27:02;;;;;;;18.75;14.63;;;;;;;;;;5031720;28;20429;-62
2021/09/07 00:29:28;;;;;;;21.50;16.05;;;;;;;;;;5032441;28;20071;-62
2021/09/07 00:31:54;;;;;;;20.35;15.90;;;;;;;;;;5032673;28;20029;-63
2021/09/07 00:34:20;;;;;;;18.65;15.77;;;;;;;;;;5032201;28;20079;-62
2021/09/07 00:36:46;;;;;;;18.90;15.10;;;;;;;;;;5032747;28;20661;-62
2021/09/07 00:39:13;;;;;;;19.30;14.73;;;;;;;;;;5031680;28;20029;-62
2021/09/07 00:41:39;;;;;;;18.88;14.30;;;;;;;;;;5032471;28;20079;-62
2021/09/07 00:44:13;;;;;;;18.58;15.05;;;;;;;;;;5032183;28;20041;-62
2021/09/07 00:46:39;;;;;;;20.45;15.82;;;;;;;;;;5032394;28;20045;-62
2021/09/07 00:49:05;;;;;;;18.13;14.98;;;;;;;;;;5033549;28;20017;-62
2021/09/07 00:51:31;;;;;;;16.95;12.65;;;;;;;;;;5031696;28;20087;-62
2021/09/07 00:53:58;;;;;;;18.42;13.73;;;;;;;;;;5033955;28;20377;-62
2021/09/07 00:56:24;;;;;;;18.15;14.10;;;;;;;;;;5032318;28;20048;-62
2021/09/07 00:58:50;;;;;;;17.77;14.45;;;;;;;;;;5033326;28;20097;-62
2021/09/07 01:01:16;;;;;;;20.70;14.07;;;;;;;;;;5033625;28;20025;-62
2021/09/07 01:03:42;;;;;;;20.85;14.57;;;;;;;;;;5031896;28;20107;-62
2021/09/07 01:06:08;;;;;;;17.80;14.15;;;;;;;;;;5031788;28;20492;-62
2021/09/07 01:08:35;;;;;;;18.65;15.13;;;;;;;;;;5031692;28;20587;-62
2021/09/07 01:11:01;;;;;;;18.13;14.68;;;;;;;;;;5033717;28;20379;-62
2021/09/07 01:13:26;;;;;;;16.30;12.82;;;;;;;;;;5033609;28;20032;-62
2021/09/07 01:15:52;;;;;;;16.60;12.40;;;;;;;;;;5046228;28;20061;-62
2021/09/07 01:18:18;;;;;;;17.58;13.18;;;;;;;;;;5030985;28;20032;-62
2021/09/07 01:20:44;;;;;;;20.50;14.25;;;;;;;;;;5032113;28;20026;-62
2021/09/07 01:23:10;;;;;;;18.42;14.05;;;;;;;;;;5032160;28;20038;-62
2021/09/07 01:25:36;;;;;;;19.70;13.80;;;;;;;;;;5031960;28;20057;-62
2021/09/07 01:28:02;;;;;;;18.30;14.60;;;;;;;;;;5031655;28;20120;-62
2021/09/07 01:30:29;;;;;;;17.45;13.95;;;;;;;;;;5031444;28;20025;-62
2021/09/07 01:32:56;;;;;;;16.50;13.82;;;;;;;;;;5037111;28;20029;-62
2021/09/07 01:35:22;;;;;;;18.65;14.57;;;;;;;;;;5035982;28;20021;-62
2021/09/07 01:37:48;;;;;;;47.88;20.58;;;;;;;;;;5035623;28;20045;-62
2021/09/07 01:40:14;;;;;;;20.95;14.45;;;;;;;;;;5035275;28;20022;-62
2021/09/07 01:42:41;;;;;;;22.38;14.48;;;;;;;;;;5035811;28;20489;-62
2021/09/07 01:45:08;;;;;;;18.67;14.80;;;;;;;;;;5035069;28;20121;-62
2021/09/07 01:47:34;;;;;;;20.15;15.55;;;;;;;;;;5036618;28;20021;-62
2021/09/07 01:50:00;;;;;;;17.52;15.00;;;;;;;;;;5035409;28;20033;-62
2021/09/07 01:52:26;;;;;;;21.83;16.27;;;;;;;;;;5035571;28;20661;-62
2021/09/07 01:54:52;;;;;;;21.52;15.48;;;;;;;;;;5035646;28;20040;-62
2021/09/07 01:57:18;;;;;;;18.50;14.88;;;;;;;;;;5034734;28;20064;-62
2021/09/07 01:59:44;;;;;;;19.10;14.65;;;;;;;;;;5034930;28;20026;-62
2021/09/07 02:02:10;;;;;;;19.98;14.05;;;;;;;;;;5035222;28;20105;-62
2021/09/07 02:04:36;;;;;;;21.15;14.25;;;;;;;;;;5036560;28;20036;-62
2021/09/07 02:07:02;;;;;;;19.40;14.80;;;;;;;;;;5036594;28;20021;-62
2021/09/07 02:09:28;;;;;;;18.73;14.40;;;;;;;;;;5034649;28;20048;-62
2021/09/07 02:11:54;;;;;;;17.75;14.13;;;;;;;;;;5036677;28;20465;-62
2021/09/07 02:14:20;;;;;;;20.13;14.55;;;;;;;;;;5036255;28;20037;-62
2021/09/07 02:16:46;;;;;;;18.50;14.80;;;;;;;;;;5036125;28;20025;-62
2021/09/07 02:19:12;;;;;;;19.35;13.43;;;;;;;;;;5035063;28;20697;-62
2021/09/07 02:21:38;;;;;;;20.25;14.73;;;;;;;;;;5034973;28;20022;-62
2021/09/07 02:24:04;;;;;;;18.80;15.00;;;;;;;;;;5034351;28;20038;-62
2021/09/07 02:26:30;;;;;;;18.58;14.63;;;;;;;;;;5034574;28;20021;-62
2021/09/07 02:28:56;;;;;;;21.35;15.90;;;;;;;;;;5034496;28;20511;-62
2021/09/07 02:31:22;;;;;;;18.67;15.90;;;;;;;;;;5034628;28;20052;-62
2021/09/07 02:33:48;;;;;;;21.13;15.55;;;;;;;;;;5018746;28;20536;-62
2021/09/07 02:36:14;;;;;;;20.27;16.13;;;;;;;;;;5033638;28;20061;-62
2021/09/07 02:38:40;;;;;;;19.38;14.80;;;;;;;;;;5034681;28;20061;-62
2021/09/07 02:41:06;;;;;;;18.73;14.23;;;;;;;;;;5036070;28;20084;-62
2021/09/07 02:43:32;;;;;;;18.77;14.60;;;;;;;;;;5033614;28;20038;-62
2021/09/07 02:45:58;;;;;;;19.02;14.38;;;;;;;;;;5034454;28;20021;-62
2021/09/07 02:48:24;;;;;;;23.70;15.05;;;;;;;;;;5033454;28;20425;-62
2021/09/07 02:50:50;;;;;;;15.38;10.45;;;;;;;;;;5035565;28;20029;-62
2021/09/07 02:53:16;;;;;;;16.50;11.00;;;;;;;;;;5034443;28;20040;-62
2021/09/07 02:55:42;;;;;;;16.77;10.23;;;;;;;;;;5034221;28;20640;-62
2021/09/07 02:58:09;;;;;;;16.05;11.52;;;;;;;;;;5034402;28;20028;-63
2021/09/07 03:00:35;;;;;;;17.33;10.63;;;;;;;;;;5034104;28;20142;-62
2021/09/07 03:03:01;;;;;;;15.15;10.85;;;;;;;;;;5032930;28;20712;-62
2021/09/07 03:05:27;;;;;;;16.52;11.13;;;;;;;;;;5035541;28;20025;-61
2021/09/07 03:07:53;;;;;;;14.30;11.18;;;;;;;;;;5034112;28;20530;-62
2021/09/07 03:10:19;;;;;;;17.95;10.98;;;;;;;;;;5033733;28;20025;-62
2021/09/07 03:12:45;;;;;;;21.20;12.75;;;;;;;;;;5034635;28;20017;-68
2021/09/07 03:15:12;;;;;;;19.85;15.75;;;;;;;;;;5034004;28;20108;-68
2021/09/07 03:17:38;;;;;;;19.73;15.38;;;;;;;;;;5033952;28;20025;-68
2021/09/07 03:20:04;;;;;;;20.00;14.55;;;;;;;;;;5035328;28;20029;-69
2021/09/07 03:22:31;;;;;;;20.15;14.80;;;;;;;;;;5033289;28;20053;-69
2021/09/07 03:24:58;;;;;;;20.23;15.27;;;;;;;;;;5035016;28;20033;-68
2021/09/07 03:27:24;;;;;;;20.45;15.80;;;;;;;;;;5032766;28;20298;-58
2021/09/07 03:29:50;;;;;;;23.05;16.73;;;;;;;;;;5034726;28;20088;-57
2021/09/07 03:32:16;;;;;;;19.58;15.63;;;;;;;;;;5033197;28;20082;-58
2021/09/07 03:34:41;;;;;;;20.75;15.05;;;;;;;;;;5032893;28;20418;-57
2021/09/07 03:37:07;;;;;;;19.67;14.02;;;;;;;;;;5033056;28;20108;-57
2021/09/07 03:39:33;;;;;;;21.15;14.63;;;;;;;;;;5033110;28;20025;-55
2021/09/07 03:41:59;;;;;;;18.85;15.00;;;;;;;;;;5031920;28;20010;-57
2021/09/07 03:44:25;;;;;;;19.23;14.85;;;;;;;;;;5031740;28;20752;-57
2021/09/07 03:46:51;;;;;;;23.00;15.18;;;;;;;;;;5033010;28;20022;-57
2021/09/07 03:49:17;;;;;;;19.67;15.20;;;;;;;;;;5033411;28;20073;-56
2021/09/07 03:51:43;;;;;;;19.15;15.70;;;;;;;;;;5033000;28;20029;-58
2021/09/07 03:54:09;;;;;;;21.50;16.00;;;;;;;;;;5032542;28;20064;-69
2021/09/07 03:56:36;;;;;;;20.92;15.98;;;;;;;;;;5032560;28;20501;-69
2021/09/07 03:59:02;;;;;;;20.85;15.05;;;;;;;;;;5033373;28;20029;-69
2021/09/07 04:01:28;;;;;;;20.25;15.00;;;;;;;;;;5032351;28;20480;-69
2021/09/07 04:03:54;;;;;;;19.52;15.63;;;;;;;;;;5034669;28;20041;-69
2021/09/07 04:06:20;;;;;;;23.08;15.40;;;;;;;;;;5031854;28;20517;-69
2021/09/07 04:08:46;;;;;;;18.55;14.70;;;;;;;;;;5034423;28;20469;-69
2021/09/07 04:11:12;;;;;;;21.88;16.17;;;;;;;;;;5034147;28;20029;-69
2021/09/07 04:13:39;;;;;;;20.67;16.20;;;;;;;;;;5034364;28;20029;-69
2021/09/07 04:16:05;;;;;;;22.98;15.93;;;;;;;;;;5033990;28;20083;-69
2021/09/07 04:18:31;;;;;;;22.83;16.10;;;;;;;;;;5031058;28;20033;-69
2021/09/07 04:20:57;;;;;;;23.33;17.17;;;;;;;;;;5033887;28;20519;-73
2021/09/07 04:23:23;;;;;;;21.63;16.25;;;;;;;;;;5033853;28;20124;-72
2021/09/07 04:25:49;;;;;;;21.77;16.75;;;;;;;;;;5034054;28;20481;-72
2021/09/07 04:28:16;;;;;;;21.17;16.15;;;;;;;;;;5032131;28;20128;-69
2021/09/07 04:30:42;;;;;;;21.67;15.88;;;;;;;;;;5032425;28;20029;-70
2021/09/07 04:33:08;;;;;;;20.90;16.38;;;;;;;;;;5032073;28;20385;-69
2021/09/07 04:35:33;;;;;;;21.17;16.23;;;;;;;;;;5032242;28;20096;-69
2021/09/07 04:37:59;;;;;;;22.73;17.10;;;;;;;;;;5032556;28;20021;-69
2021/09/07 04:40:25;;;;;;;21.15;16.15;;;;;;;;;;5032324;28;20037;-69
2021/09/07 04:42:51;;;;;;;21.85;16.20;;;;;;;;;;5033732;28;20457;-69
2021/09/07 04:45:18;;;;;;;23.05;17.05;;;;;;;;;;5031880;28;20048;-67
2021/09/07 04:47:44;;;;;;;23.73;17.27;;;;;;;;;;5033823;28;20041;-67
2021/09/07 04:50:10;;;;;;;28.30;18.85;;;;;;;;;;5032377;28;20484;-67
2021/09/07 04:52:36;;;;;;;26.15;18.65;;;;;;;;;;5031592;28;20469;-67
2021/09/07 04:55:02;;;;;;;25.83;20.00;;;;;;;;;;5031996;28;20029;-67
2021/09/07 04:57:28;;;;;;;26.35;19.27;;;;;;;;;;5031272;28;20029;-67
2021/09/07 04:59:54;;;;;;;24.40;18.83;;;;;;;;;;5032899;28;20104;-67
2021/09/07 05:02:20;;;;;;;23.33;17.95;;;;;;;;;;5028784;28;20477;-67
2021/09/07 05:04:46;;;;;;;22.58;18.02;;;;;;;;;;5031281;28;20108;-67
2021/09/07 05:07:12;;;;;;;27.00;18.02;;;;;;;;;;5035455;28;20036;-67
2021/09/07 05:09:39;;;;;;;25.23;18.85;;;;;;;;;;5033100;28;20034;-67
2021/09/07 05:12:05;;;;;;;22.35;18.02;;;;;;;;;;5033172;28;20021;-66
2021/09/07 05:14:31;;;;;;;20.67;16.40;;;;;;;;;;5037538;28;20022;-67
2021/09/07 05:16:57;;;;;;;24.65;17.23;;;;;;;;;;5036274;28;20022;-66
2021/09/07 05:19:23;;;;;;;22.90;16.95;;;;;;;;;;5037191;28;20143;-66
2021/09/07 05:21:49;;;;;;;21.73;17.55;;;;;;;;;;5035385;28;20028;-66
2021/09/07 05:24:15;;;;;;;23.95;17.92;;;;;;;;;;5034207;28;20113;-67
2021/09/07 05:26:41;;;;;;;26.00;18.50;;;;;;;;;;5036327;28;20029;-67
2021/09/07 05:29:07;;;;;;;21.05;17.33;;;;;;;;;;5036366;28;20049;-67
2021/09/07 05:31:33;;;;;;;23.00;17.80;;;;;;;;;;5035545;28;20075;-67
2021/09/07 05:33:59;;;;;;;21.10;16.95;;;;;;;;;;5035737;28;20472;-67
2021/09/07 05:36:25;;;;;;;23.30;17.63;;;;;;;;;;5034417;28;20018;-67
2021/09/07 05:38:51;;;;;;;22.60;17.70;;;;;;;;;;5035894;28;20108;-67
2021/09/07 05:41:17;;;;;;;21.23;16.70;;;;;;;;;;5037102;28;20030;-67
2021/09/07 05:43:43;;;;;;;22.92;17.10;;;;;;;;;;5035449;28;20411;-67
2021/09/07 05:46:09;;;;;;;22.08;16.73;;;;;;;;;;5035936;28;20025;-67
2021/09/07 05:48:35;;;;;;;19.17;14.70;;;;;;;;;;5035724;28;20115;-67
2021/09/07 05:51:01;;;;;;;20.65;14.30;;;;;;;;;;5032658;28;20488;-67
2021/09/07 05:53:27;;;;;;;19.55;14.60;;;;;;;;;;5035253;28;20026;-67
2021/09/07 05:55:53;;;;;;;20.30;15.15;;;;;;;;;;5035211;28;20112;-67
2021/09/07 05:58:19;;;;;;;21.48;16.10;;;;;;;;;;5035129;28;20160;-67
2021/09/07 06:00:45;;;;;;;18.90;15.27;;;;;;;;;;5035280;28;20029;-67
2021/09/07 06:03:11;;;;;;;20.88;16.25;;;;;;;;;;5034703;28;22438;-67
2021/09/07 06:05:37;;;;;;;19.23;14.15;;;;;;;;;;5036476;28;20045;-67
2021/09/07 06:08:03;;;;;;;18.58;14.38;;;;;;;;;;5035134;28;20118;-67
2021/09/07 06:10:29;;;;;;;19.75;14.00;;;;;;;;;;5034749;28;20025;-67
2021/09/07 06:12:55;;;;;;;18.38;14.88;;;;;;;;;;5036661;28;20055;-67
2021/09/07 06:15:21;;;;;;;19.75;14.50;;;;;;;;;;5033901;28;20469;-67
2021/09/07 06:17:47;;;;;;;20.25;14.23;;;;;;;;;;5035393;28;20066;-67
2021/09/07 06:20:13;;;;;;;20.88;14.45;;;;;;;;;;5036481;28;20033;-66
2021/09/07 06:22:39;;;;;;;19.60;13.48;;;;;;;;;;5034403;28;20029;-67
2021/09/07 06:25:06;;;;;;;16.65;11.48;;;;;;;;;;5043152;28;20557;-66
2021/09/07 06:27:32;;;;;;;14.98;11.77;;;;;;;;;;5034033;28;20052;-66
2021/09/07 06:29:58;;;;;;;16.10;12.75;;;;;;;;;;5034336;28;20037;-66
2021/09/07 06:32:24;;;;;;;17.85;12.07;;;;;;;;;;5036322;28;20428;-67
2021/09/07 06:34:50;;;;;;;15.32;12.00;;;;;;;;;;5034748;28;20055;-67
2021/09/07 06:37:16;;;;;;;15.88;11.38;;;;;;;;;;5034604;28;20064;-67
2021/09/07 06:39:42;;;;;;;17.63;10.95;;;;;;;;;;5034654;28;20083;-67
2021/09/07 06:42:08;;;;;;;16.38;8.57;;;;;;;;;;5033712;28;20096;-67
2021/09/07 06:44:34;;;;;;;12.13;9.73;;;;;;;;;;5034237;28;20396;-67
2021/09/07 06:47:01;;;;;;;12.35;9.60;;;;;;;;;;5034446;28;20075;-67
2021/09/07 06:49:27;;;;;;;13.80;9.77;;;;;;;;;;5034503;28;20040;-67
2021/09/07 06:51:53;;;;;;;16.45;9.68;;;;;;;;;;5034220;28;20025;-67
2021/09/07 06:54:19;;;;;;;14.07;8.85;;;;;;;;;;5033513;28;20030;-67
2021/09/07 06:56:45;;;;;;;13.43;9.50;;;;;;;;;;5034006;28;20064;-67
2021/09/07 06:59:11;;;;;;;11.88;9.27;;;;;;;;;;5034082;28;20086;-67
2021/09/07 07:01:37;;;;;;;13.32;9.35;;;;;;;;;;5034086;28;20017;-67
2021/09/07 07:04:03;;;;;;;13.55;8.93;;;;;;;;;;5033729;28;20067;-67
2021/09/07 07:06:29;;;;;;;12.95;8.85;;;;;;;;;;5033064;28;20029;-67
2021/09/07 07:08:55;;;;;;;13.40;8.32;;;;;;;;;;5033723;28;20029;-67
2021/09/07 07:11:21;;;;;;;12.50;8.60;;;;;;;;;;5033927;28;20476;-67
2021/09/07 07:13:47;;;;;;;11.00;8.38;;;;;;;;;;5033966;28;20022;-67
2021/09/07 07:16:13;;;;;;;14.48;8.30;;;;;;;;;;5035055;28;20038;-67
2021/09/07 07:18:39;;;;;;;10.65;7.80;;;;;;;;;;5033795;28;20026;-67
2021/09/07 07:21:05;;;;;;;13.10;8.07;;;;;;;;;;5034512;28;20499;-67
2021/09/07 07:23:31;;;;;;;11.50;8.18;;;;;;;;;;5034997;28;20083;-67
2021/09/07 07:25:57;;;;;;;11.15;8.15;;;;;;;;;;5033296;28;20025;-66
2021/09/07 07:28:23;;;;;;;11.00;8.13;;;;;;;;;;5033079;28;20041;-66
2021/09/07 07:30:49;;;;;;;11.30;8.07;;;;;;;;;;5018778;28;20080;-66
2021/09/07 07:33:15;;;;;;;12.68;8.80;;;;;;;;;;5032879;28;20025;-67
2021/09/07 07:35:41;;;;;;;13.00;8.20;;;;;;;;;;5034937;28;20072;-66
2021/09/07 07:38:08;;;;;;;11.30;8.48;;;;;;;;;;5033143;28;20083;-67
2021/09/07 07:40:34;;;;;;;15.15;10.07;;;;;;;;;;5032960;28;20044;-67
2021/09/07 07:43:00;;;;;;;11.95;8.98;;;;;;;;;;5033363;28;20366;-67
2021/09/07 07:45:26;;;;;;;14.40;8.65;;;;;;;;;;5032455;28;20041;-67
2021/09/07 07:47:52;;;;;;;12.80;7.95;;;;;;;;;;5033713;28;20022;-67
2021/09/07 07:50:18;;;;;;;11.98;8.25;;;;;;;;;;5033030;28;20052;-67
2021/09/07 07:52:45;;;;;;;12.52;8.27;;;;;;;;;;5032464;28;20021;-66
2021/09/07 07:55:11;;;;;;;12.32;8.73;;;;;;;;;;5033345;28;20026;-67
2021/09/07 07:57:37;;;;;;;14.18;8.90;;;;;;;;;;5033351;28;20022;-67
2021/09/07 08:00:04;;;;;;;12.80;9.30;;;;;;;;;;5031256;28;20392;-67
2021/09/07 08:02:30;;;;;;;12.75;8.45;;;;;;;;;;5033851;28;20424;-67
2021/09/07 08:04:56;;;;;;;11.68;8.05;;;;;;;;;;5032744;28;20549;-66
2021/09/07 08:07:22;;;;;;;11.20;7.45;;;;;;;;;;5033027;28;20044;-66
2021/09/07 08:09:48;;;;;;;10.75;7.60;;;;;;;;;;5033085;28;20036;-66
2021/09/07 08:12:17;;;;;;;10.45;7.57;;;;;;;;;;5032139;28;20499;-67
2021/09/07 08:14:45;;;;;;;12.55;7.55;;;;;;;;;;5032410;28;20140;-67
2021/09/07 08:17:11;;;;;;;10.00;7.32;;;;;;;;;;5033637;28;20013;-67
2021/09/07 08:19:37;;;;;;;13.00;7.78;;;;;;;;;;5032455;28;20029;-67
2021/09/07 08:22:03;;;;;;;11.63;7.47;;;;;;;;;;5034141;28;20480;-67
2021/09/07 08:24:29;;;;;;;11.35;7.68;;;;;;;;;;5031530;28;20033;-67
2021/09/07 08:26:55;;;;;;;12.38;9.02;;;;;;;;;;5033858;28;20025;-67
2021/09/07 08:29:21;;;;;;;10.45;7.40;;;;;;;;;;5032443;28;20416;-67
2021/09/07 08:31:47;;;;;;;11.27;7.63;;;;;;;;;;5032127;28;20025;-67
2021/09/07 08:34:13;;;;;;;11.27;7.47;;;;;;;;;;5032451;28;20033;-67
2021/09/07 08:36:39;;;;;;;11.90;7.22;;;;;;;;;;5032384;28;20393;-66
2021/09/07 08:39:05;;;;;;;12.60;7.80;;;;;;;;;;5031901;28;20087;-66
2021/09/07 08:41:31;;;;;;;13.70;8.52;;;;;;;;;;5032841;28;20482;-67
2021/09/07 08:43:57;;;;;;;11.65;8.15;;;;;;;;;;5037659;28;20146;-67
2021/09/07 08:46:23;;;;;;;11.55;7.68;;;;;;;;;;5032575;28;20485;-66
2021/09/07 08:48:49;;;;;;;13.65;8.10;;;;;;;;;;5016494;28;20095;-66
2021/09/07 08:51:16;;;;;;;14.80;8.57;;;;;;;;;;5031849;28;20022;-66
2021/09/07 08:53:42;;;;;;;10.75;7.82;;;;;;;;;;5032130;28;20113;-66
2021/09/07 08:56:09;;;;;;;12.45;7.90;;;;;;;;;;5032110;28;20029;-66
2021/09/07 08:58:35;;;;;;;14.70;8.45;;;;;;;;;;5032580;28;20039;-66
2021/09/07 09:01:17;;;;;;;14.68;8.82;;;;;;;;;;5041036;28;20116;-66
2021/09/07 09:03:44;;;;;;;12.73;8.02;;;;;;;;;;5032346;28;20103;-66
2021/09/07 09:06:11;;;;;;;13.77;7.88;;;;;;;;;;5031038;28;20025;-66
2021/09/07 09:08:37;;;;;;;12.27;7.45;;;;;;;;;;5032319;28;20034;-67
2021/09/07 09:11:07;;;;;;;14.02;8.38;;;;;;;;;;5036917;28;20112;-66
2021/09/07 09:13:41;;;;;;;12.02;7.65;;;;;;;;;;5030858;28;20499;-66
2021/09/07 09:16:07;;;;;;;11.27;7.68;;;;;;;;;;5032825;28;20040;-66
2021/09/07 09:18:34;;;;;;;9.50;7.20;;;;;;;;;;5031632;28;20079;-66
2021/09/07 09:21:19;;;;;;;10.93;7.80;;;;;;;;;;5033739;28;20029;-66
2021/09/07 09:24:05;;;;;;;12.05;8.55;;;;;;;;;;5033518;28;20033;-66
2021/09/07 09:26:30;;;;;;;11.43;8.02;;;;;;;;;;5032544;28;20052;-66
2021/09/07 09:28:58;;;;;;;14.27;8.20;;;;;;;;;;5031944;28;20045;-66
2021/09/07 09:31:24;;;;;;;10.85;7.65;;;;;;;;;;5033377;28;20036;-66
2021/09/07 09:34:01;;;;;;;13.52;7.70;;;;;;;;;;5032155;28;20353;-66
2021/09/07 09:36:30;;;;;;;12.18;8.07;;;;;;;;;;5031083;28;20033;-66
2021/09/07 09:38:56;;;;;;;12.25;7.82;;;;;;;;;;5032489;28;20021;-66
2021/09/07 09:41:22;;;;;;;12.60;7.78;;;;;;;;;;5031871;28;20066;-66
2021/09/07 09:43:49;;;;;;;15.07;8.40;;;;;;;;;;5031910;28;20132;-66
2021/09/07 09:46:22;;;;;;;11.27;8.02;;;;;;;;;;5031603;28;20022;-67
2021/09/07 09:48:49;;;;;;;11.70;7.95;;;;;;;;;;5031780;28;20041;-67
2021/09/07 09:51:17;;;;;;;15.47;8.33;;;;;;;;;;5031266;28;20029;-67
2021/09/07 09:53:45;;;;;;;11.50;8.15;;;;;;;;;;5035454;28;20041;-67
2021/09/07 09:56:11;;;;;;;14.88;8.32;;;;;;;;;;5034655;28;20019;-66
2021/09/07 09:58:38;;;;;;;12.82;8.50;;;;;;;;;;5036877;28;20510;-67
2021/09/07 10:01:05;;;;;;;13.00;9.10;;;;;;;;;;5043482;28;20444;-67
2021/09/07 10:03:31;;;;;;;14.53;8.60;;;;;;;;;;5032667;28;20392;-66
2021/09/07 10:05:57;;;;;;;10.57;8.45;;;;;;;;;;5032156;28;20274;-66
2021/09/07 10:08:23;;;;;;;11.73;8.18;;;;;;;;;;5035782;28;20021;-66
2021/09/07 10:10:50;;;;;;;15.38;8.90;;;;;;;;;;5033736;28;20431;-67
2021/09/07 10:13:17;;;;;;;13.33;8.43;;;;;;;;;;5034321;28;20056;-66
2021/09/07 10:15:53;;;;;;;12.85;8.70;;;;;;;;;;5034452;28;20048;-66
2021/09/07 10:19:08;;;;;;;12.05;8.10;;;;;;;;;;5028914;28;20033;-65
2021/09/07 10:24:05;;;;;;;13.93;9.50;;;;;;;;;;5029394;28;20136;-66
2021/09/07 10:26:40;;;;;;;17.00;8.45;;;;;;;;;;5034809;28;20021;-66
2021/09/07 10:29:09;;;;;;;12.57;8.73;;;;;;;;;;5034239;28;20050;-66
2021/09/07 10:31:42;;;;;;;14.68;8.90;;;;;;;;;;5036253;28;20107;-66
2021/09/07 10:34:08;;;;;;;13.65;9.13;;;;;;;;;;5036150;28;20032;-65
2021/09/07 10:36:54;;;;;;;13.07;8.57;;;;;;;;;;5033836;28;20040;-65
2021/09/07 10:39:32;;;;;;;14.15;9.55;;;;;;;;;;5034029;28;20038;-65
2021/09/07 10:41:59;;;;;;;13.70;8.90;;;;;;;;;;5035335;28;20029;-65
2021/09/07 10:44:28;;;;;;;13.88;8.38;;;;;;;;;;5033895;28;20055;-66
2021/09/07 10:46:57;;;;;;;12.00;8.10;;;;;;;;;;5040554;28;20026;-65
2021/09/07 10:49:53;;;;;;;12.98;8.68;;;;;;;;;;5034534;28;20045;-65
2021/09/07 10:52:19;;;;;;;13.23;8.70;;;;;;;;;;5023877;28;20033;-66
2021/09/07 10:54:46;;;;;;;13.88;7.97;;;;;;;;;;5034192;28;20021;-65
2021/09/07 10:57:12;;;;;;;;;;;;;;;;;;5033286;28;20125;-66
2021/09/07 10:59:50;;;;;;;13.23;8.10;;;;;;;;;;5032169;28;20043;-66
2021/09/07 11:02:35;;;;;;;12.25;7.57;;;;;;;;;;5032109;28;20026;-66
2021/09/07 11:05:05;;;;;;;14.75;8.90;;;;;;;;;;5032232;28;20088;-65
2021/09/07 11:07:37;;;;;;;14.48;8.23;;;;;;;;;;5040235;28;20036;-66
2021/09/07 11:10:04;;;;;;;18.30;9.20;;;;;;;;;;5034822;28;20033;-65
2021/09/07 11:12:31;;;;;;;12.10;7.93;;;;;;;;;;5033288;28;20068;-65
2021/09/07 11:15:01;;;;;;;16.52;8.85;;;;;;;;;;5035653;28;20159;-60
2021/09/07 11:17:27;;;;;;;12.63;7.65;;;;;;;;;;5034845;28;20530;-60
2021/09/07 11:19:59;;;;;;;13.82;8.75;;;;;;;;;;5035570;28;20419;-60
2021/09/07 11:22:28;;;;;;;14.30;8.52;;;;;;;;;;5034717;28;20033;-60
2021/09/07 11:25:01;;;;;;;13.85;8.60;;;;;;;;;;5034986;28;20040;-60
2021/09/07 11:27:27;;;;;;;12.32;8.02;;;;;;;;;;5033107;28;20033;-60
2021/09/07 11:29:53;;;;;;;16.50;8.32;;;;;;;;;;5034224;28;20418;-60
2021/09/07 11:32:21;;;;;;;12.07;8.20;;;;;;;;;;5035127;28;20064;-60
2021/09/07 11:34:47;;;;;;;;;;;;;;;;;;5035393;28;20481;-60
2021/09/07 11:37:19;;;;;;;12.20;7.68;;;;;;;;;;5034474;28;19911;-60
2021/09/07 11:39:45;;;;;;;15.23;9.13;;;;;;;;;;5034140;28;20096;-60
2021/09/07 11:42:11;;;;;;;14.77;8.18;;;;;;;;;;5033461;28;20493;-60
2021/09/07 11:44:37;;;;;;;13.45;8.00;;;;;;;;;;5034304;28;20079;-60
2021/09/07 11:47:05;;;;;;;17.35;8.40;;;;;;;;;;5033393;28;20025;-60
2021/09/07 11:49:31;;;;;;;13.30;8.88;;;;;;;;;;5034857;28;20025;-60
2021/09/07 11:51:57;;;;;;;12.45;8.32;;;;;;;;;;5034632;28;20051;-60
2021/09/07 11:54:27;;;;;;;13.70;8.20;;;;;;;;;;5032160;28;20029;-60
2021/09/07 11:56:56;;;;;;;12.23;8.65;;;;;;;;;;5032899;28;20034;-60
2021/09/07 11:59:23;;;;;;;15.60;8.25;;;;;;;;;;5034621;28;20139;-60
2021/09/07 12:01:53;;;;;;;12.40;8.35;;;;;;;;;;5034514;28;20017;-60
2021/09/07 12:04:23;;;;;;;13.95;8.63;;;;;;;;;;5034536;28;20032;-60
2021/09/07 12:06:51;;;;;;;14.73;8.55;;;;;;;;;;5018081;28;20009;-60
2021/09/07 12:09:17;;;;;;;20.02;8.60;;;;;;;;;;5027515;28;20040;-61
2021/09/07 12:11:51;;;;;;;18.20;8.98;;;;;;;;;;5034247;28;20076;-60
2021/09/07 12:14:20;;;;;;;17.20;8.40;;;;;;;;;;5034302;28;20017;-61
2021/09/07 12:16:59;;;;;;;16.73;9.15;;;;;;;;;;5034097;28;20020;-60
2021/09/07 12:19:35;;;;;;;14.05;8.23;;;;;;;;;;5034637;28;20048;-61
2021/09/07 12:22:17;;;;;;;12.32;8.23;;;;;;;;;;5034038;28;20017;-61
2021/09/07 12:24:57;;;;;;;13.90;8.55;;;;;;;;;;5032671;28;20120;-60
2021/09/07 12:27:27;;;;;;;18.33;9.55;;;;;;;;;;5031763;28;20083;-60
2021/09/07 12:30:12;;;;;;;12.93;8.07;;;;;;;;;;5034202;28;20039;-60
2021/09/07 12:32:47;;;;;;;14.50;8.65;;;;;;;;;;5033732;28;20032;-60
2021/09/07 12:35:27;;;;;;;15.13;7.57;;;;;;;;;;5035778;28;20068;-61
2021/09/07 12:37:53;;;;;;;14.60;8.20;;;;;;;;;;5034241;28;20386;-61
2021/09/07 12:40:19;;;;;;;16.00;8.45;;;;;;;;;;5033489;28;20033;-61
2021/09/07 12:42:45;;;;;;;15.00;8.57;;;;;;;;;;5033123;28;20021;-61
2021/09/07 12:45:11;;;;;;;13.93;8.07;;;;;;;;;;5032490;28;20219;-61
2021/09/07 12:47:37;;;;;;;13.48;8.15;;;;;;;;;;5033566;28;20024;-61
2021/09/07 12:50:03;;;;;;;17.15;9.15;;;;;;;;;;5033492;28;20030;-61
2021/09/07 12:52:29;;;;;;;14.63;8.25;;;;;;;;;;5033766;28;20101;-60
2021/09/07 12:54:55;;;;;;;12.70;8.35;;;;;;;;;;5033632;28;20029;-61
2021/09/07 12:57:21;;;;;;;14.25;8.70;;;;;;;;;;5031253;28;20420;-61
2021/09/07 12:59:47;;;;;;;13.98;8.70;;;;;;;;;;5033471;28;20029;-61
2021/09/07 13:02:13;;;;;;;18.40;10.40;;;;;;;;;;5033852;28;20017;-60
2021/09/07 13:04:39;;;;;;;15.75;10.50;;;;;;;;;;5032282;28;20041;-60
2021/09/07 13:07:05;;;;;;;16.90;10.55;;;;;;;;;;5033986;28;20028;-61
2021/09/07 13:09:31;;;;;;;16.63;11.18;;;;;;;;;;5031086;28;20040;-61
2021/09/07 13:11:57;;;;;;;14.45;9.82;;;;;;;;;;5033729;28;20026;-61
2021/09/07 13:14:23;;;;;;;15.95;9.20;;;;;;;;;;5033438;28;20028;-61
2021/09/07 13:16:49;;;;;;;14.40;9.80;;;;;;;;;;5038967;28;20029;-61
2021/09/07 13:19:15;;;;;;;15.57;9.68;;;;;;;;;;5033801;28;20049;-61
2021/09/07 13:21:41;;;;;;;16.55;9.18;;;;;;;;;;5031750;28;20550;-61
2021/09/07 13:24:07;;;;;;;15.05;9.40;;;;;;;;;;5032418;28;20029;-61
2021/09/07 13:26:33;;;;;;;14.95;10.07;;;;;;;;;;5033890;28;20021;-61
2021/09/07 13:28:58;;;;;;;15.00;9.55;;;;;;;;;;5037235;28;20072;-61
2021/09/07 13:31:24;;;;;;;13.38;9.80;;;;;;;;;;5036724;28;20033;-61
2021/09/07 13:33:50;;;;;;;18.45;9.57;;;;;;;;;;5035560;28;20132;-61
2021/09/07 13:36:17;;;;;;;16.80;9.73;;;;;;;;;;5033756;28;20072;-61
2021/09/07 13:38:44;;;;;;;15.00;9.07;;;;;;;;;;5037205;28;20029;-61
2021/09/07 13:41:10;;;;;;;15.82;10.05;;;;;;;;;;5037315;28;20033;-61
2021/09/07 13:43:36;;;;;;;15.07;10.18;;;;;;;;;;5035827;28;20037;-61
2021/09/07 13:46:02;;;;;;;17.52;9.68;;;;;;;;;;5037454;28;20476;-61
2021/09/07 13:48:28;;;;;;;15.00;9.07;;;;;;;;;;5034794;28;20017;-61
2021/09/07 13:50:54;;;;;;;13.25;8.98;;;;;;;;;;5035818;28;20044;-61
2021/09/07 13:53:20;;;;;;;15.73;9.68;;;;;;;;;;5037007;28;20028;-61
2021/09/07 13:55:46;;;;;;;15.25;9.30;;;;;;;;;;5037030;28;20025;-61
2021/09/07 13:58:12;;;;;;;17.55;8.68;;;;;;;;;;5036967;28;20013;-61
2021/09/07 14:00:38;;;;;;;19.77;9.25;;;;;;;;;;5034631;28;20033;-61
2021/09/07 14:03:04;;;;;;;17.08;9.77;;;;;;;;;;5036656;28;20248;-61
2021/09/07 14:05:30;;;;;;;13.80;8.90;;;;;;;;;;5036572;28;20029;-61
2021/09/07 14:07:56;;;;;;;14.13;9.20;;;;;;;;;;5036839;28;20499;-61
2021/09/07 14:10:23;;;;;;;15.15;9.13;;;;;;;;;;5035082;28;20100;-61
2021/09/07 14:12:49;;;;;;;13.90;8.80;;;;;;;;;;5035955;28;20052;-61
2021/09/07 14:15:15;;;;;;;15.38;9.60;;;;;;;;;;5034849;28;20730;-61
2021/09/07 14:17:41;;;;;;;15.15;9.57;;;;;;;;;;5034746;28;20394;-61
2021/09/07 14:20:09;;;;;;;14.95;8.43;;;;;;;;;;5036370;28;20025;-60
2021/09/07 14:22:35;;;;;;;;;;;;;;;;;;5035502;28;20044;-60
2021/09/07 14:25:01;;;;;;;18.20;9.43;;;;;;;;;;5035859;28;19916;-61